sensor_id;sensor_type;location;lat;lon;timestamp;temperature;humidity
8882;DHT22;4477;48.736;9.176;2023-04-09T06:06:03;4.70;99.90
8882;DHT22;4477;48.736;9.176;2023-04-09T06:08:30;7.10;99.90
8882;DHT22;4477;48.736;9.176;2023-04-09T06:10:57;7.60;99.90
8882;DHT22;4477;48.736;9.176;2023-04-09T06:13:24;8.10;99.90
8882;DHT22;4477;48.736;9.176;2023-04-09T06:20:45;8.60;99.90
8882;DHT22;4477;48.736;9.176;2023-04-09T06:25:41;9.30;97.70
8882;DHT22;4477;48.736;9.176;2023-04-09T06:28:07;9.60;96.10
8882;DHT22;4477;48.736;9.176;2023-04-09T06:30:34;9.80;95.20
8882;DHT22;4477;48.736;9.176;2023-04-09T06:33:01;9.90;93.30
8882;DHT22;4477;48.736;9.176;2023-04-09T07:14:56;10.00;92.60
8882;DHT22;4477;48.736;9.176;2023-04-09T07:17:23;11.80;80.90
8882;DHT22;4477;48.736;9.176;2023-04-09T07:19:50;11.70;78.30
8882;DHT22;4477;48.736;9.176;2023-04-09T07:22:17;11.90;76.90
8882;DHT22;4477;48.736;9.176;2023-04-09T07:24:44;12.20;75.30
8882;DHT22;4477;48.736;9.176;2023-04-09T07:27:11;12.20;73.60
8882;DHT22;4477;48.736;9.176;2023-04-09T08:58:17;12.50;72.80
8882;DHT22;4477;48.736;9.176;2023-04-09T09:08:08;13.80;59.30
8882;DHT22;4477;48.736;9.176;2023-04-09T09:13:17;14.60;58.30
8882;DHT22;4477;48.736;9.176;2023-04-09T09:15:44;14.30;57.00
8882;DHT22;4477;48.736;9.176;2023-04-09T09:18:14;14.50;57.60
8882;DHT22;4477;48.736;9.176;2023-04-09T09:30:38;14.30;55.00
8882;DHT22;4477;48.736;9.176;2023-04-09T09:33:07;14.20;55.50
8882;DHT22;4477;48.736;9.176;2023-04-09T10:22:44;14.70;54.50
8882;DHT22;4477;48.736;9.176;2023-04-09T10:25:11;16.20;54.00
8882;DHT22;4477;48.736;9.176;2023-04-09T10:27:38;16.70;50.30
8882;DHT22;4477;48.736;9.176;2023-04-09T10:30:07;16.80;48.60
8882;DHT22;4477;48.736;9.176;2023-04-09T10:32:35;17.00;48.40
8882;DHT22;4477;48.736;9.176;2023-04-09T10:35:02;17.20;46.00
8882;DHT22;4477;48.736;9.176;2023-04-09T10:37:31;17.40;47.60
8882;DHT22;4477;48.736;9.176;2023-04-09T10:39:57;17.50;48.80
8882;DHT22;4477;48.736;9.176;2023-04-09T10:55:33;17.80;47.90
8882;DHT22;4477;48.736;9.176;2023-04-09T11:10:32;16.10;48.50
8882;DHT22;4477;48.736;9.176;2023-04-09T11:13:00;15.20;50.70
8882;DHT22;4477;48.736;9.176;2023-04-09T11:15:27;16.50;43.70
8882;DHT22;4477;48.736;9.176;2023-04-09T11:17:54;16.90;44.00
8882;DHT22;4477;48.736;9.176;2023-04-09T11:25:20;16.90;44.80
8882;DHT22;4477;48.736;9.176;2023-04-09T11:27:47;16.30;49.00
8882;DHT22;4477;48.736;9.176;2023-04-09T11:32:41;16.00;47.90
8882;DHT22;4477;48.736;9.176;2023-04-09T11:47:31;16.30;47.00
8882;DHT22;4477;48.736;9.176;2023-04-09T11:49:58;17.20;46.50
8882;DHT22;4477;48.736;9.176;2023-04-09T11:52:24;17.50;45.90
8882;DHT22;4477;48.736;9.176;2023-04-09T11:54:58;17.10;46.10
8882;DHT22;4477;48.736;9.176;2023-04-09T11:57:40;17.50;45.30
8882;DHT22;4477;48.736;9.176;2023-04-09T12:00:09;17.00;44.50
8882;DHT22;4477;48.736;9.176;2023-04-09T12:02:38;18.10;47.80
8882;DHT22;4477;48.736;9.176;2023-04-09T12:05:10;19.50;42.30
8882;DHT22;4477;48.736;9.176;2023-04-09T12:07:38;20.10;42.70
8882;DHT22;4477;48.736;9.176;2023-04-09T12:10:07;21.10;40.80
8882;DHT22;4477;48.736;9.176;2023-04-09T12:17:39;19.80;38.70
8882;DHT22;4477;48.736;9.176;2023-04-09T12:32:28;14.70;46.90
8882;DHT22;4477;48.736;9.176;2023-04-09T12:34:55;16.00;48.00
8882;DHT22;4477;48.736;9.176;2023-04-09T12:54:36;17.60;44.10
8882;DHT22;4477;48.736;9.176;2023-04-09T12:57:04;18.20;43.50
8882;DHT22;4477;48.736;9.176;2023-04-09T12:59:31;18.20;41.20
8882;DHT22;4477;48.736;9.176;2023-04-09T13:01:58;18.00;42.70
8882;DHT22;4477;48.736;9.176;2023-04-09T13:06:53;17.60;42.00
8882;DHT22;4477;48.736;9.176;2023-04-09T13:11:48;17.80;42.90
8882;DHT22;4477;48.736;9.176;2023-04-09T13:46:11;18.80;43.20
8882;DHT22;4477;48.736;9.176;2023-04-09T14:20:36;18.70;40.30
8882;DHT22;4477;48.736;9.176;2023-04-09T14:23:03;17.90;40.20
8882;DHT22;4477;48.736;9.176;2023-04-09T14:25:30;19.30;38.10
8882;DHT22;4477;48.736;9.176;2023-04-09T14:27:57;19.90;36.20
8882;DHT22;4477;48.736;9.176;2023-04-09T14:35:19;20.10;35.70
8882;DHT22;4477;48.736;9.176;2023-04-09T14:37:46;18.20;39.90
8882;DHT22;4477;48.736;9.176;2023-04-09T14:40:13;19.30;37.50
8882;DHT22;4477;48.736;9.176;2023-04-09T14:42:40;20.00;35.90
8882;DHT22;4477;48.736;9.176;2023-04-09T14:45:08;20.60;36.10
8882;DHT22;4477;48.736;9.176;2023-04-09T14:47:36;21.50;34.40
8882;DHT22;4477;48.736;9.176;2023-04-09T14:50:03;21.70;34.30
8882;DHT22;4477;48.736;9.176;2023-04-09T14:52:30;22.20;32.70
8882;DHT22;4477;48.736;9.176;2023-04-09T14:54:58;22.10;34.10
8882;DHT22;4477;48.736;9.176;2023-04-09T14:57:25;22.50;33.50
8882;DHT22;4477;48.736;9.176;2023-04-09T15:04:47;21.20;33.50
8882;DHT22;4477;48.736;9.176;2023-04-09T15:07:14;19.90;36.70
8882;DHT22;4477;48.736;9.176;2023-04-09T15:09:41;20.10;36.30
8882;DHT22;4477;48.736;9.176;2023-04-09T15:12:07;21.10;34.70
8882;DHT22;4477;48.736;9.176;2023-04-09T15:14:34;21.10;33.50
8882;DHT22;4477;48.736;9.176;2023-04-09T15:17:01;20.90;34.20
8882;DHT22;4477;48.736;9.176;2023-04-09T15:19:28;20.70;33.90
8882;DHT22;4477;48.736;9.176;2023-04-09T15:29:21;21.10;33.10
8882;DHT22;4477;48.736;9.176;2023-04-09T15:31:48;20.50;35.70
8882;DHT22;4477;48.736;9.176;2023-04-09T15:34:17;21.90;31.40
8882;DHT22;4477;48.736;9.176;2023-04-09T15:36:44;21.70;31.50
8882;DHT22;4477;48.736;9.176;2023-04-09T15:41:40;21.70;31.70
8882;DHT22;4477;48.736;9.176;2023-04-09T16:01:18;20.80;33.30
8882;DHT22;4477;48.736;9.176;2023-04-09T16:03:45;18.40;38.40
8882;DHT22;4477;48.736;9.176;2023-04-09T16:06:18;19.60;35.70
8882;DHT22;4477;48.736;9.176;2023-04-09T16:08:45;20.50;35.00
8882;DHT22;4477;48.736;9.176;2023-04-09T16:11:12;20.30;33.80
8882;DHT22;4477;48.736;9.176;2023-04-09T16:13:40;20.10;34.30
8882;DHT22;4477;48.736;9.176;2023-04-09T16:16:07;20.60;34.30
8882;DHT22;4477;48.736;9.176;2023-04-09T16:18:34;20.00;34.60
8882;DHT22;4477;48.736;9.176;2023-04-09T16:21:01;19.60;35.00
8882;DHT22;4477;48.736;9.176;2023-04-09T16:23:28;19.60;35.50
8882;DHT22;4477;48.736;9.176;2023-04-09T16:25:55;19.30;36.80
8882;DHT22;4477;48.736;9.176;2023-04-09T16:28:22;19.20;37.00
8882;DHT22;4477;48.736;9.176;2023-04-09T17:15:15;18.80;35.70
8882;DHT22;4477;48.736;9.176;2023-04-09T17:17:43;11.40;50.10
8882;DHT22;4477;48.736;9.176;2023-04-09T17:20:11;11.10;50.80
8882;DHT22;4477;48.736;9.176;2023-04-09T17:22:39;11.00;51.50
8882;DHT22;4477;48.736;9.176;2023-04-09T17:25:07;10.90;51.90
8882;DHT22;4477;48.736;9.176;2023-04-09T17:27:34;10.80;51.80
8882;DHT22;4477;48.736;9.176;2023-04-09T17:30:01;10.70;52.20
8882;DHT22;4477;48.736;9.176;2023-04-09T18:48:46;10.60;51.80
8882;DHT22;4477;48.736;9.176;2023-04-09T18:51:13;7.50;67.10
8882;DHT22;4477;48.736;9.176;2023-04-09T18:53:40;7.30;67.50
8882;DHT22;4477;48.736;9.176;2023-04-09T19:03:36;7.30;68.00
8882;DHT22;4477;48.736;9.176;2023-04-09T19:06:11;7.10;69.40
8882;DHT22;4477;48.736;9.176;2023-04-09T19:13:33;7.00;69.40
8882;DHT22;4477;48.736;9.176;2023-04-09T19:16:00;6.70;70.30
8882;DHT22;4477;48.736;9.176;2023-04-09T19:18:27;6.60;70.90
8882;DHT22;4477;48.736;9.176;2023-04-09T19:20:54;6.40;71.60
8882;DHT22;4477;48.736;9.176;2023-04-09T19:23:22;6.30;72.70
8882;DHT22;4477;48.736;9.176;2023-04-09T19:25:50;6.20;73.40
8882;DHT22;4477;48.736;9.176;2023-04-09T19:30:46;6.10;73.90
8882;DHT22;4477;48.736;9.176;2023-04-09T19:33:15;6.10;74.40
8882;DHT22;4477;48.736;9.176;2023-04-09T19:35:42;6.10;74.80
8882;DHT22;4477;48.736;9.176;2023-04-09T19:38:08;6.10;74.60
8882;DHT22;4477;48.736;9.176;2023-04-09T19:40:37;6.00;74.70
8882;DHT22;4477;48.736;9.176;2023-04-09T19:43:03;5.90;75.20
8882;DHT22;4477;48.736;9.176;2023-04-09T19:45:30;5.80;75.30
8882;DHT22;4477;48.736;9.176;2023-04-09T19:47:57;5.70;76.60
8882;DHT22;4477;48.736;9.176;2023-04-09T19:50:24;5.60;76.60
8882;DHT22;4477;48.736;9.176;2023-04-09T19:52:52;5.50;77.10
8882;DHT22;4477;48.736;9.176;2023-04-09T19:57:48;5.30;77.80
8882;DHT22;4477;48.736;9.176;2023-04-09T20:00:15;5.10;78.60
8882;DHT22;4477;48.736;9.176;2023-04-09T20:02:42;5.10;79.10
8882;DHT22;4477;48.736;9.176;2023-04-09T20:05:08;5.00;79.40
8882;DHT22;4477;48.736;9.176;2023-04-09T20:07:36;4.90;80.10
8882;DHT22;4477;48.736;9.176;2023-04-09T20:10:03;4.80;80.50
8882;DHT22;4477;48.736;9.176;2023-04-09T20:12:30;4.80;80.90
8882;DHT22;4477;48.736;9.176;2023-04-09T20:14:59;4.80;81.30
8882;DHT22;4477;48.736;9.176;2023-04-09T20:17:27;4.80;81.60
8882;DHT22;4477;48.736;9.176;2023-04-09T20:19:53;4.70;81.70
8882;DHT22;4477;48.736;9.176;2023-04-09T20:22:21;4.80;81.80
8882;DHT22;4477;48.736;9.176;2023-04-09T20:24:48;4.80;81.80
8882;DHT22;4477;48.736;9.176;2023-04-09T20:27:16;4.70;82.00
8882;DHT22;4477;48.736;9.176;2023-04-09T20:29:43;4.70;82.30
8882;DHT22;4477;48.736;9.176;2023-04-09T20:32:11;4.70;82.30
8882;DHT22;4477;48.736;9.176;2023-04-09T20:34:38;4.70;82.40
8882;DHT22;4477;48.736;9.176;2023-04-09T20:37:05;4.70;82.70
8882;DHT22;4477;48.736;9.176;2023-04-09T20:39:32;4.70;82.60
8882;DHT22;4477;48.736;9.176;2023-04-09T20:41:59;4.80;82.80
8882;DHT22;4477;48.736;9.176;2023-04-09T20:44:26;4.80;82.80
8882;DHT22;4477;48.736;9.176;2023-04-09T20:46:53;4.90;82.40
8882;DHT22;4477;48.736;9.176;2023-04-09T20:49:22;4.90;82.40
8882;DHT22;4477;48.736;9.176;2023-04-09T20:51:48;4.80;82.60
8882;DHT22;4477;48.736;9.176;2023-04-09T20:54:16;4.70;83.00
8882;DHT22;4477;48.736;9.176;2023-04-09T20:56:45;4.70;83.30
8882;DHT22;4477;48.736;9.176;2023-04-09T20:59:12;4.60;83.60
8882;DHT22;4477;48.736;9.176;2023-04-09T21:01:39;4.60;83.80
8882;DHT22;4477;48.736;9.176;2023-04-09T21:04:06;4.70;84.00
8882;DHT22;4477;48.736;9.176;2023-04-09T21:06:34;4.80;83.70
8882;DHT22;4477;48.736;9.176;2023-04-09T21:09:01;4.80;83.60
8882;DHT22;4477;48.736;9.176;2023-04-09T21:11:28;4.70;84.00
8882;DHT22;4477;48.736;9.176;2023-04-09T21:13:56;4.70;84.40
8882;DHT22;4477;48.736;9.176;2023-04-09T21:16:22;4.70;84.80
8882;DHT22;4477;48.736;9.176;2023-04-09T21:18:51;4.50;85.20
8882;DHT22;4477;48.736;9.176;2023-04-09T21:21:18;4.60;85.20
8882;DHT22;4477;48.736;9.176;2023-04-09T21:23:46;4.70;85.40
8882;DHT22;4477;48.736;9.176;2023-04-09T21:26:13;4.60;85.90
8882;DHT22;4477;48.736;9.176;2023-04-09T21:28:40;4.60;85.20
8882;DHT22;4477;48.736;9.176;2023-04-09T21:31:08;4.60;85.20
8882;DHT22;4477;48.736;9.176;2023-04-09T21:33:35;4.50;85.40
8882;DHT22;4477;48.736;9.176;2023-04-09T21:36:03;4.50;85.80
8882;DHT22;4477;48.736;9.176;2023-04-09T21:38:32;4.50;85.40
8882;DHT22;4477;48.736;9.176;2023-04-09T21:41:00;4.50;86.10
8882;DHT22;4477;48.736;9.176;2023-04-09T21:43:27;4.60;86.20
8882;DHT22;4477;48.736;9.176;2023-04-09T21:45:54;4.70;86.10
8882;DHT22;4477;48.736;9.176;2023-04-09T21:48:21;4.90;85.30
8882;DHT22;4477;48.736;9.176;2023-04-09T21:50:48;5.00;84.40
8882;DHT22;4477;48.736;9.176;2023-04-09T21:53:15;5.20;84.50
8882;DHT22;4477;48.736;9.176;2023-04-09T21:55:42;5.10;84.30
8882;DHT22;4477;48.736;9.176;2023-04-09T21:58:10;4.90;84.60
8882;DHT22;4477;48.736;9.176;2023-04-09T22:00:37;4.90;84.80
8882;DHT22;4477;48.736;9.176;2023-04-09T22:03:04;4.80;85.60
8882;DHT22;4477;48.736;9.176;2023-04-09T22:05:31;4.70;86.10
8882;DHT22;4477;48.736;9.176;2023-04-09T22:07:59;4.70;86.10
8882;DHT22;4477;48.736;9.176;2023-04-09T22:10:26;4.70;85.90
8882;DHT22;4477;48.736;9.176;2023-04-09T22:12:53;4.60;86.40
8882;DHT22;4477;48.736;9.176;2023-04-09T22:15:21;4.60;86.60
8882;DHT22;4477;48.736;9.176;2023-04-09T22:17:48;4.60;86.60
8882;DHT22;4477;48.736;9.176;2023-04-09T22:20:15;4.60;86.90
8882;DHT22;4477;48.736;9.176;2023-04-09T22:22:41;4.60;87.20
8882;DHT22;4477;48.736;9.176;2023-04-09T22:25:09;4.60;87.20
8882;DHT22;4477;48.736;9.176;2023-04-09T22:27:36;4.60;86.60
8882;DHT22;4477;48.736;9.176;2023-04-09T22:30:04;4.60;86.80
8882;DHT22;4477;48.736;9.176;2023-04-09T22:32:32;4.60;86.80
8882;DHT22;4477;48.736;9.176;2023-04-09T22:34:59;4.70;87.10
8882;DHT22;4477;48.736;9.176;2023-04-09T22:37:26;4.60;87.20
8882;DHT22;4477;48.736;9.176;2023-04-09T22:39:53;4.50;87.50
8882;DHT22;4477;48.736;9.176;2023-04-09T23:58:28;4.30;87.90
